Lake Worth, Florida

4:24 PM EDT on August 25, 2016 (GMT -0400)
NOS_NWLON | | Change Station

Elev 0 ft 26.61 °N, 80.03 °W | Updated 36 minutes ago

Mostly Cloudy
Mostly Cloudy
84 °F
Feels Like 81 °F
N
17
Wind Variable Wind from NE
Gusts 19.0 mph

Today
High -- | Low -- °F
--% Chance of Precip.
Yesterday
High -- | Low -- °F
Precip. -- in
Pressure 29.96 in
Visibility 10.0 miles
Clouds Scattered Clouds 2200 ft
Mostly Cloudy 3600 ft
Mostly Cloudy 25000 ft
Heat Index 81 °F
Dew Point Not available.
Humidity Not available.
Rainfall in
Snow Depth Not available.
6:56 AM 7:46 PM
Last Quarter, 42% visible
METAR KPBI 251953Z 05016KT 10SM SCT022CB BKN036 BKN250 32/25 A2996 RMK AO2 SLP143 CB NW-N MOV SW CB DSNT ALQDS T03170250
Pressure 29.96 in
Visibility 10.0 miles
Clouds Scattered Clouds 2200 ft
Mostly Cloudy 3600 ft
Mostly Cloudy 25000 ft
Heat Index 81 °F
Dew Point Not available.
Humidity Not available.
Rainfall in
Snow Depth Not available.
6:56 AM 7:46 PM
Last Quarter, 42% visible
METAR KPBI 251953Z 05016KT 10SM SCT022CB BKN036 BKN250 32/25 A2996 RMK AO2 SLP143 CB NW-N MOV SW CB DSNT ALQDS T03170250
A tropical disturbance pushing toward the Bahamas, is expected to develop into a tropical depression or storm, and will likely target Florida and the Gulf Coast this weekend into next week.

Right now, the disturbance remains a broad area of low pressure pushing through the Dominican Republic and Haiti, headed toward the southeast Bahamas. Rainfall totals over 3 inches (with locally higher amounts) are expected in HispaƱiola, particularly over elevated terrain.

10-Day Weather Forecast

Almanac

Astronomy

Aug. 25, 2016 Rise Set
Actual Time
Civil Twilight
Nautical Twilight
Astronomical Twilight
Moon
Length of Visible Light
Length of Day
Tomorrow will be .
, % of the Moon is Illuminated

Today's Extremes

State Highs State Lows

Community

WunderPhotos

Upload Photos

1,934,921 photos uploaded!

WunderBlog® & News

Nearby

Air Quality

  Air Quality AQ Index Pollutant
Not available.

Snow Depth

Station Depth Elevation

Earthquake Activity

City Distance Mag. Time & Date
Minimum magnitude displayed is 2.5.

Coastal Water Temperatures

Place Temperature

Stations

Nearby Weather Stations

Station Location Temp. Windchill Dew Point Humidity Wind Precip. Elev Updated Type
                   

Watches & Warnings

There are currently no watches in effect.